Airfield :
LOGIN :

Register | Disclaimer

   EN    FR    IT 

 










Legend :    VFR   Marginal VFR   IFR   Intensive IFR   Very Intensive IFR
Visi :
Ceiling :
>= 8 km
>= 3000ft
5 to 8 km
1000 to 3000 ft
1500m to 5 km
500 to 1000 ft
800 to 1500m
200 to 500 ft
< 800m
< 200 ft
Symbols :   Thunderstorms  Fog  Heavy snow  Heavy precipitations  Wind > 20 kt
SIGMETs :     Misc.  Thunderstorms  Icing  Turbulence  Mountain Waves  Volcanic Ashes







- Airport Elevation : 313 ft
- Download approach charts


LFQA - Reims-Prunay

CURRENT METAR :
  • 270000Z AUTO VRB02KT 8000 -RA ///TCU 18/17 Q1010

EXPIRED METARs :
  • 262330Z AUTO VRB01KT 5000 -RA BR FEW047/// SCT072/// OVC100/// ///CB 18/17 Q1011
  • 262300Z AUTO 14004KT 4800 +RA BR FEW047/// BKN072/// OVC086/// ///TCU 18/17 Q1011
  • 262230Z AUTO 13005KT 090V150 4900 RA BR ///TCU 19/16 Q1011
  • 262200Z AUTO 14003KT 9999 ///TCU 20/15 Q1011
  • 262130Z AUTO 03007KT CAVOK 21/15 Q1010

TAF N/A
No reported NOTAMs for that airfield.
1 SIGMET reported for the Paris FIR (LFFF) :
 
Embedded thunderstorms
LFFF SIGMET 7 VALID 262230/270130 LFPW
LFFF PARIS FIR/UIR EMBD TS FCST WI N4930 E00545 - N4930 E00600 - N4900 E00445 - N4830 E00530 - N4800 E00515 - N4745 E00330 - N4845 E00300 TOP FL390 MOV N 10KT WKN=



MET'MAP, your aeronautical weather chart ! - Copyright ORBIFLY December 2007 - Disclaimer

ORBIFLY MET'MAP TEAM :

Programming & Development : Alexandra Zaïnal
Concept & Development : Baudouin d'Aumeries
Co-Development & Prog : Marc-Olivier Méhu
Technical & hardware support : Manuel Goepfert

Contact : metmap@orbifly.com




SOURCES & CREDITS :

   NOAA